Time;durP1;ratioP1;P1;durP2;ratioP2;P2;SDS_P1;SDS_P2;PMS_P1;PMS_P2;Temp;Humidity;BMP_temperature;BMP_pressure;BME280_temperature;BME280_humidity;BME280_pressure;Samples;Min_cycle;Max_cycle;Signal;HPM_P1;HPM_P2
2023/10/02 00:01:53;;;;;;;2.65;2.42;;;16.70;99.80;;;;;;5053042;28;20397;-66
2023/10/02 00:04:20;;;;;;;3.05;2.60;;;16.60;99.50;;;;;;5034767;28;20037;-66
2023/10/02 00:06:47;;;;;;;4.60;2.75;;;16.50;99.90;;;;;;5052961;28;20049;-66
2023/10/02 00:09:20;;;;;;;3.17;2.78;;;16.50;99.90;;;;;;5052978;28;20120;-66
2023/10/02 00:11:46;;;;;;;3.50;3.05;;;16.40;99.90;;;;;;5052943;28;20146;-66
2023/10/02 00:14:27;;;;;;;3.92;2.63;;;16.40;99.90;;;;;;5018378;28;20053;-66
2023/10/02 00:17:03;;;;;;;2.40;2.10;;;16.50;99.90;;;;;;5052601;28;20068;-66
2023/10/02 00:19:35;;;;;;;3.03;2.72;;;16.30;99.90;;;;;;5052820;28;20037;-66
2023/10/02 00:22:08;;;;;;;3.20;2.70;;;16.30;99.90;;;;;;5034711;28;20099;-66
2023/10/02 00:24:39;;;;;;;3.20;2.90;;;16.20;99.90;;;;;;5052787;28;20032;-66
2023/10/02 00:27:07;;;;;;;3.75;3.00;;;16.20;99.90;;;;;;5052823;28;20485;-66
2023/10/02 00:29:33;;;;;;;3.53;2.83;;;16.40;99.90;;;;;;5052700;28;20432;-66
2023/10/02 00:31:59;;;;;;;3.03;2.42;;;16.50;99.90;;;;;;5034623;28;20060;-66
2023/10/02 00:34:32;;;;;;;3.33;3.00;;;16.00;99.90;;;;;;5052254;28;20053;-66
2023/10/02 00:37:06;;;;;;;3.00;2.63;;;16.00;99.90;;;;;;5052739;28;20029;-66
2023/10/02 00:39:39;;;;;;;3.00;2.55;;;16.00;99.90;;;;;;5052696;28;20037;-66
2023/10/02 00:42:24;;;;;;;3.20;2.88;;;16.00;99.90;;;;;;5052395;28;20053;-66
2023/10/02 00:45:01;;;;;;;2.90;2.50;;;16.00;99.90;;;;;;5052504;28;20080;-66
2023/10/02 00:47:42;;;;;;;3.85;3.10;;;16.00;99.90;;;;;;5052565;28;20037;-66
2023/10/02 00:50:10;;;;;;;3.83;2.78;;;16.00;99.90;;;;;;5052643;28;20064;-66
2023/10/02 00:52:42;;;;;;;3.05;2.75;;;16.00;99.90;;;;;;5034478;28;20441;-66
2023/10/02 00:55:10;;;;;;;3.00;2.70;;;16.00;99.90;;;;;;5019221;28;20041;-66
2023/10/02 00:57:38;;;;;;;2.67;2.47;;;16.00;99.90;;;;;;5056247;28;20116;-66
2023/10/02 01:00:20;;;;;;;4.82;2.78;;;16.10;99.90;;;;;;5038457;28;20535;-66
2023/10/02 01:02:48;;;;;;;3.42;2.90;;;16.10;99.90;;;;;;5037993;28;20041;-66
2023/10/02 01:05:21;;;;;;;3.50;2.72;;;16.10;99.90;;;;;;5056145;28;20045;-66
2023/10/02 01:07:53;;;;;;;2.97;2.67;;;16.10;99.90;;;;;;5037990;28;20072;-66
2023/10/02 01:10:20;;;;;;;2.85;2.45;;;16.20;99.90;;;;;;5056009;28;20048;-66
2023/10/02 01:12:49;;;;;;;3.00;2.70;;;16.20;99.90;;;;;;5055979;28;20048;-66
2023/10/02 01:15:19;;;;;;;4.45;2.60;;;16.20;99.90;;;;;;5037818;28;20048;-66
2023/10/02 01:17:48;;;;;;;4.18;2.70;;;16.20;99.90;;;;;;5056203;28;20033;-66
2023/10/02 01:23:16;;;;;;;4.78;3.13;;;16.30;99.90;;;;;;5055369;28;20049;-66
2023/10/02 01:25:45;;;;;;;3.42;2.80;;;16.40;99.90;;;;;;5037829;28;20067;-66
2023/10/02 01:28:13;;;;;;;3.50;3.20;;;16.40;99.90;;;;;;5055310;28;20037;-66
2023/10/02 01:30:40;;;;;;;3.55;2.67;;;16.40;99.90;;;;;;5055330;28;20048;-66
2023/10/02 01:33:14;;;;;;;2.63;2.22;;;16.40;99.90;;;;;;5055418;28;20041;-66
2023/10/02 01:35:48;;;;;;;2.55;2.35;;;16.40;99.90;;;;;;5037323;28;20167;-66
2023/10/02 01:38:34;;;;;;;3.83;2.80;;;16.50;99.90;;;;;;5037636;28;20044;-66
2023/10/02 01:41:10;;;;;;;4.13;2.80;;;16.50;99.90;;;;;;5054955;28;20116;-68
2023/10/02 01:43:36;;;;;;;4.45;3.47;;;17.20;99.90;;;;;;5020598;28;20106;-66
2023/10/02 01:46:06;;;;;;;3.53;3.00;;;16.50;99.90;;;;;;5055263;28;20419;-66
2023/10/02 01:48:36;;;;;;;3.55;3.25;;;16.60;99.90;;;;;;5055400;28;20083;-66
2023/10/02 01:51:15;;;;;;;3.03;2.72;;;16.70;99.90;;;;;;5054952;28;20147;-66
2023/10/02 01:53:45;;;;;;;3.33;2.60;;;16.50;99.90;;;;;;5055182;28;20041;-66
2023/10/02 01:56:12;;;;;;;3.65;3.25;;;16.40;99.90;;;;;;5036996;28;20049;-66
2023/10/02 01:58:42;;;;;;;3.58;3.00;;;16.50;99.90;;;;;;5037255;28;20076;-66
2023/10/02 02:01:09;;;;;;;3.13;2.83;;;16.50;99.90;;;;;;5036929;28;20049;-66
2023/10/02 02:03:46;;;;;;;3.22;2.92;;;16.40;99.90;;;;;;5054658;28;20045;-66
2023/10/02 02:06:16;;;;;;;4.22;3.50;;;16.50;99.90;;;;;;5054773;28;20041;-66
2023/10/02 02:08:43;;;;;;;3.33;3.03;;;16.40;99.90;;;;;;5037185;28;20489;-68
2023/10/02 02:11:16;;;;;;;3.20;2.50;;;16.50;99.90;;;;;;5054595;28;20052;-68
2023/10/02 02:13:44;;;;;;;3.47;3.03;;;16.60;99.90;;;;;;5054533;28;20045;-68
2023/10/02 02:16:21;;;;;;;3.50;2.97;;;16.50;99.90;;;;;;5054802;28;20394;-68
2023/10/02 02:18:53;;;;;;;3.58;3.22;;;16.50;99.90;;;;;;5036617;28;20048;-68
2023/10/02 02:21:21;;;;;;;3.67;3.10;;;16.60;99.90;;;;;;5054638;28;20040;-68
2023/10/02 02:23:48;;;;;;;3.53;3.22;;;16.90;99.90;;;;;;5054621;28;20033;-68
2023/10/02 02:26:21;;;;;;;3.80;3.30;;;16.50;99.90;;;;;;5054614;28;20400;-68
2023/10/02 02:28:49;;;;;;;4.38;3.78;;;16.60;99.90;;;;;;5054595;28;20044;-68
2023/10/02 02:31:29;;;;;;;3.00;2.70;;;16.60;99.90;;;;;;5054500;28;20392;-68
2023/10/02 02:33:59;;;;;;;4.35;3.95;;;16.60;99.90;;;;;;5054255;28;20053;-68
2023/10/02 02:36:26;;;;;;;4.15;3.65;;;16.50;99.90;;;;;;5054473;28;20479;-67
2023/10/02 02:39:15;;;;;;;3.50;3.20;;;16.80;99.90;;;;;;5036323;28;20094;-68
2023/10/02 02:44:50;;;;;;;4.43;4.03;;;16.60;99.90;;;;;;5054120;28;20485;-67
2023/10/02 02:47:17;;;;;;;3.60;2.88;;;16.50;99.90;;;;;;5036408;28;20547;-68
2023/10/02 02:49:58;;;;;;;3.65;2.92;;;16.50;99.90;;;;;;5054191;28;20099;-67
2023/10/02 02:52:24;;;;;;;;;;;16.40;99.90;;;;;;5036375;28;20041;-67
2023/10/02 02:54:58;;;;;;;3.33;3.00;;;16.50;99.90;;;;;;5054065;28;19918;-68
2023/10/02 02:57:25;;;;;;;3.75;3.10;;;16.40;99.90;;;;;;5036129;28;20424;-68
2023/10/02 03:00:24;;;;;;;3.53;3.05;;;16.40;99.90;;;;;;5054035;28;20488;-68
2023/10/02 03:02:40;;;;;;;4.80;4.05;;;16.40;99.90;;;;;;5035773;28;20056;-68
2023/10/02 03:05:11;;;;;;;3.40;3.10;;;16.40;99.90;;;;;;5053896;28;20039;-68
2023/10/02 03:07:39;;;;;;;3.08;2.65;;;16.40;99.90;;;;;;5019359;28;20041;-68
2023/10/02 03:10:12;;;;;;;3.60;3.30;;;16.50;99.90;;;;;;5053898;28;20112;-66
2023/10/02 03:12:44;;;;;;;3.30;3.00;;;16.50;99.90;;;;;;5053707;28;20032;-66
2023/10/02 03:15:15;;;;;;;4.15;3.35;;;16.50;99.90;;;;;;5035574;28;20451;-66
2023/10/02 03:17:43;;;;;;;3.58;3.13;;;16.60;99.90;;;;;;5035128;28;20095;-66
2023/10/02 03:20:22;;;;;;;3.60;3.30;;;16.50;99.90;;;;;;5035584;28;20048;-68
2023/10/02 03:22:55;;;;;;;4.85;3.80;;;16.50;99.90;;;;;;5053107;28;20033;-68
2023/10/02 03:25:28;;;;;;;4.25;3.55;;;16.50;99.90;;;;;;5053527;28;20044;-68
2023/10/02 03:27:57;;;;;;;6.80;3.28;;;16.60;99.90;;;;;;5053459;28;20384;-68
2023/10/02 03:30:38;;;;;;;3.10;2.83;;;16.50;99.90;;;;;;5018769;28;20087;-68
2023/10/02 03:33:20;;;;;;;3.03;2.67;;;16.50;99.90;;;;;;5035165;28;20049;-68
2023/10/02 03:35:58;;;;;;;3.67;2.72;;;16.50;99.90;;;;;;5053378;28;20045;-68
2023/10/02 03:38:27;;;;;;;3.97;3.53;;;16.60;99.90;;;;;;5052992;28;20033;-68
2023/10/02 03:40:56;;;;;;;4.15;3.38;;;16.40;99.90;;;;;;5035113;28;20041;-67
2023/10/02 03:43:34;;;;;;;2.92;2.67;;;16.50;99.90;;;;;;5053102;28;20365;-68
2023/10/02 03:46:06;;;;;;;3.85;3.17;;;16.50;99.90;;;;;;5035239;28;20503;-68
2023/10/02 03:48:33;;;;;;;4.38;3.55;;;16.50;99.90;;;;;;5053143;28;20044;-68
2023/10/02 03:51:09;;;;;;;3.47;3.03;;;16.40;99.90;;;;;;5053157;28;20110;-68
2023/10/02 03:53:38;;;;;;;3.63;3.20;;;16.40;99.90;;;;;;5053032;28;20366;-68
2023/10/02 03:58:52;;;;;;;3.10;2.78;;;16.40;99.90;;;;;;5053011;28;20044;-68
2023/10/02 04:01:28;;;;;;;4.50;3.58;;;16.40;99.90;;;;;;5053007;28;20051;-68
2023/10/02 04:06:42;;;;;;;3.35;3.05;;;16.30;99.90;;;;;;5034740;28;20044;-68
2023/10/02 04:09:17;;;;;;;3.83;3.20;;;16.30;99.90;;;;;;5034875;28;20049;-68
2023/10/02 04:11:45;;;;;;;3.80;3.35;;;16.20;99.90;;;;;;5018376;28;20045;-68
2023/10/02 04:14:17;;;;;;;2.88;2.67;;;16.30;99.90;;;;;;5052876;28;20037;-68
2023/10/02 04:16:52;;;;;;;3.05;2.75;;;16.20;99.90;;;;;;5052519;28;20056;-68
2023/10/02 04:19:24;;;;;;;4.05;2.83;;;16.20;99.90;;;;;;5034740;28;20045;-68
2023/10/02 04:21:53;;;;;;;3.40;3.00;;;16.20;99.90;;;;;;5052861;28;20048;-68
2023/10/02 04:24:26;;;;;;;4.15;3.08;;;16.20;99.90;;;;;;5018118;28;20078;-68
2023/10/02 04:27:14;;;;;;;3.50;2.72;;;16.20;99.90;;;;;;5034991;28;20049;-68
2023/10/02 04:29:48;;;;;;;4.00;3.15;;;16.20;99.90;;;;;;5053093;28;20488;-68
2023/10/02 04:32:19;;;;;;;3.20;2.85;;;16.20;99.90;;;;;;5056813;28;20045;-68
2023/10/02 04:34:50;;;;;;;3.90;3.33;;;16.20;99.90;;;;;;5038556;28;20095;-68
2023/10/02 04:37:19;;;;;;;3.28;2.97;;;16.80;99.90;;;;;;5056680;28;20037;-67
2023/10/02 04:42:57;;;;;;;4.32;3.70;;;16.20;99.90;;;;;;5056583;28;20045;-68
2023/10/02 04:45:21;;;;;;;5.63;3.38;;;16.10;99.90;;;;;;5055876;28;20045;-68
2023/10/02 04:47:54;;;;;;;3.92;2.78;;;16.10;99.90;;;;;;5056496;28;20044;-67
2023/10/02 04:53:04;;;;;;;3.22;2.92;;;16.10;99.90;;;;;;5038442;28;20052;-68
2023/10/02 04:55:43;;;;;;;3.55;3.08;;;16.10;99.90;;;;;;5038165;28;20385;-71
2023/10/02 04:58:14;;;;;;;6.40;2.92;;;16.70;99.90;;;;;;5038175;28;20079;-68
2023/10/02 05:01:24;;;;;;;5.00;4.35;;;16.10;99.90;;;;;;5055964;28;20123;-68
2023/10/02 05:03:49;;;;;;;4.43;3.78;;;16.10;99.90;;;;;;5055799;28;20600;-68
2023/10/02 05:06:16;;;;;;;3.38;3.05;;;16.10;99.90;;;;;;5056181;28;20029;-68
2023/10/02 05:11:24;;;;;;;3.30;3.00;;;16.10;99.90;;;;;;5055705;28;20073;-68
2023/10/02 05:16:38;;;;;;;5.13;3.65;;;16.00;99.90;;;;;;5038048;28;20128;-68
2023/10/02 05:19:06;;;;;;;3.55;3.25;;;16.00;99.90;;;;;;5056036;28;20446;-66
2023/10/02 05:21:36;;;;;;;3.58;3.28;;;16.00;99.90;;;;;;5055523;28;20041;-71
2023/10/02 05:24:11;;;;;;;4.03;3.67;;;16.40;99.90;;;;;;5037665;28;20045;-66
2023/10/02 05:26:41;;;;;;;2.97;2.75;;;16.00;99.90;;;;;;5055691;28;20041;-67
2023/10/02 05:29:17;;;;;;;3.40;3.03;;;16.00;99.90;;;;;;5055534;28;20044;-66
2023/10/02 05:31:47;;;;;;;4.57;3.70;;;16.00;99.90;;;;;;5021002;28;20072;-66
2023/10/02 05:34:21;;;;;;;4.53;4.05;;;15.90;99.90;;;;;;5037554;28;20061;-66
2023/10/02 05:39:31;;;;;;;3.58;3.22;;;15.90;99.90;;;;;;5037493;28;20417;-73
2023/10/02 05:42:05;;;;;;;3.53;3.03;;;15.90;99.90;;;;;;5036824;28;20049;-71
2023/10/02 05:44:35;;;;;;;3.90;3.10;;;15.90;99.90;;;;;;5020695;28;20080;-66
2023/10/02 05:47:07;;;;;;;4.15;3.28;;;15.90;99.90;;;;;;5055340;28;20033;-66
2023/10/02 05:49:37;;;;;;;3.95;3.55;;;15.90;99.90;;;;;;5055261;28;20064;-66
2023/10/02 05:52:07;;;;;;;3.80;2.90;;;15.80;99.90;;;;;;5055292;28;20107;-66
2023/10/02 05:54:36;;;;;;;3.40;3.07;;;15.80;99.90;;;;;;5037324;28;20123;-66
2023/10/02 05:57:14;;;;;;;3.38;3.00;;;15.80;99.90;;;;;;5037151;28;20291;-66
2023/10/02 05:59:45;;;;;;;4.50;3.80;;;15.80;99.90;;;;;;5055130;28;20409;-66
2023/10/02 06:02:15;;;;;;;3.65;3.08;;;15.80;99.90;;;;;;5055228;28;20084;-73
2023/10/02 06:04:48;;;;;;;4.60;3.55;;;15.80;99.90;;;;;;5036910;28;20128;-66
2023/10/02 06:13:05;;;;;;;3.95;3.55;;;15.80;99.90;;;;;;4954497;29;20053;-68
2023/10/02 06:15:43;;;;;;;3.47;3.17;;;15.90;99.90;;;;;;5033951;28;20518;-70
2023/10/02 06:18:09;;;;;;;3.92;3.53;;;15.90;99.90;;;;;;5036884;28;20555;-70
2023/10/02 06:20:35;;;;;;;4.30;3.90;;;15.90;99.90;;;;;;5036810;28;20106;-70
2023/10/02 06:23:19;;;;;;;3.63;3.13;;;15.90;99.90;;;;;;5036697;28;20044;-69
2023/10/02 06:25:46;;;;;;;4.18;3.20;;;15.80;99.90;;;;;;5036519;28;20049;-69
2023/10/02 06:28:25;;;;;;;5.07;3.25;;;15.90;99.90;;;;;;5036693;28;20392;-70
2023/10/02 06:30:51;;;;;;;3.60;3.30;;;16.00;99.90;;;;;;5036409;28;20037;-69
2023/10/02 06:33:21;;;;;;;4.13;3.67;;;16.00;99.90;;;;;;5036151;28;20412;-70
2023/10/02 06:35:56;;;;;;;3.50;2.90;;;16.10;99.90;;;;;;5036528;28;20045;-74
2023/10/02 06:38:29;;;;;;;3.17;2.70;;;16.10;99.90;;;;;;5019986;28;20083;-70
2023/10/02 06:40:56;;;;;;;3.97;3.58;;;16.20;99.90;;;;;;5036201;28;20036;-70
2023/10/02 06:43:29;;;;;;;3.42;3.13;;;16.20;99.90;;;;;;5036082;28;20083;-67
2023/10/02 06:46:13;;;;;;;3.22;2.92;;;16.30;99.90;;;;;;5036436;28;20037;-67
2023/10/02 06:48:43;;;;;;;3.70;3.20;;;16.40;99.90;;;;;;5053852;28;20045;-68
2023/10/02 06:51:10;;;;;;;3.53;3.22;;;16.40;99.90;;;;;;5036402;28;20033;-72
2023/10/02 06:53:40;;;;;;;4.03;3.63;;;16.40;99.90;;;;;;5035351;28;20048;-73
2023/10/02 06:56:13;;;;;;;5.32;3.75;;;16.40;99.90;;;;;;5053694;28;20063;-73
2023/10/02 06:58:56;;;;;;;4.43;3.60;;;16.40;99.90;;;;;;5035758;28;20041;-68
2023/10/02 07:01:27;;;;;;;3.72;3.42;;;16.40;99.90;;;;;;5035713;28;20053;-68
2023/10/02 07:03:52;;;;;;;3.45;3.10;;;16.40;99.90;;;;;;5053854;28;20469;-68
2023/10/02 07:06:26;;;;;;;6.38;4.22;;;16.50;99.90;;;;;;5053697;28;20098;-68
2023/10/02 07:09:11;;;;;;;3.47;3.17;;;16.40;99.90;;;;;;5035688;28;20045;-67
2023/10/02 07:11:39;;;;;;;3.88;3.47;;;16.40;99.90;;;;;;5035854;28;20045;-66
2023/10/02 07:14:06;;;;;;;3.92;3.53;;;16.40;99.90;;;;;;5053659;28;20527;-66
2023/10/02 07:16:36;;;;;;;3.85;3.45;;;16.40;99.90;;;;;;5035457;28;20049;-66
2023/10/02 07:19:04;;;;;;;;;;;16.50;99.90;;;;;;5054015;28;20544;-66
2023/10/02 07:21:32;;;;;;;4.32;3.67;;;16.50;99.90;;;;;;5035405;28;19924;-72
2023/10/02 07:24:02;;;;;;;3.38;2.90;;;17.20;99.90;;;;;;5018789;28;20044;-66
2023/10/02 07:29:12;;;;;;;4.68;3.47;;;16.60;99.90;;;;;;5053440;28;20040;-66
2023/10/02 07:31:44;;;;;;;4.15;3.70;;;16.70;99.90;;;;;;5053421;28;20131;-66
2023/10/02 07:34:10;;;;;;;3.88;3.53;;;16.90;99.90;;;;;;5053065;28;20099;-66
2023/10/02 07:36:44;;;;;;;4.03;3.35;;;16.70;99.90;;;;;;5035140;28;20132;-67
2023/10/02 07:42:01;;;;;;;3.30;3.00;;;16.70;99.90;;;;;;5035092;28;20048;-66
2023/10/02 07:44:38;;;;;;;3.47;3.17;;;16.70;99.90;;;;;;5053171;28;20049;-66
2023/10/02 07:47:16;;;;;;;4.53;3.50;;;16.80;99.90;;;;;;5053220;28;20469;-64
2023/10/02 07:49:51;;;;;;;3.10;2.80;;;17.00;99.90;;;;;;5053133;28;20075;-64
2023/10/02 07:52:29;;;;;;;3.55;3.22;;;17.00;99.90;;;;;;5053085;28;20044;-64
2023/10/02 07:54:59;;;;;;;3.97;3.58;;;17.10;99.90;;;;;;5053100;28;20077;-64
2023/10/02 07:57:30;;;;;;;4.13;3.43;;;17.10;99.90;;;;;;5053071;28;20124;-66
2023/10/02 07:59:58;;;;;;;3.90;3.60;;;17.20;99.90;;;;;;5034993;28;20080;-67
2023/10/02 08:02:23;;;;;;;3.50;3.20;;;17.40;99.90;;;;;;5034917;28;20124;-66
2023/10/02 08:04:51;;;;;;;4.38;3.83;;;17.50;99.90;;;;;;5052347;28;20140;-66
2023/10/02 08:07:18;;;;;;;3.63;3.25;;;17.70;99.90;;;;;;5034836;28;20378;-66
2023/10/02 08:09:47;;;;;;;3.80;3.28;;;17.60;99.90;;;;;;5053023;28;20116;-65
2023/10/02 08:12:33;;;;;;;3.75;3.25;;;17.60;99.90;;;;;;5035059;28;20040;-66
2023/10/02 08:15:26;;;;;;;3.85;3.40;;;17.60;99.90;;;;;;5035030;28;20045;-66
2023/10/02 08:20:32;;;;;;;4.07;3.67;;;17.80;99.90;;;;;;5052531;28;20055;-65
2023/10/02 08:23:02;;;;;;;4.00;3.60;;;17.90;99.90;;;;;;5052777;28;20041;-65
2023/10/02 08:25:27;;;;;;;4.07;3.45;;;18.00;99.90;;;;;;5018271;28;20443;-65
2023/10/02 08:27:56;;;;;;;3.70;3.40;;;17.90;99.90;;;;;;5052789;28;20040;-65
2023/10/02 08:30:36;;;;;;;4.18;3.47;;;18.00;99.90;;;;;;5052665;28;20049;-65
2023/10/02 08:33:06;;;;;;;3.63;3.33;;;18.00;99.90;;;;;;5052638;28;20037;-65
2023/10/02 08:35:41;;;;;;;3.45;3.08;;;18.10;99.90;;;;;;5034540;28;20114;-65
2023/10/02 08:38:07;;;;;;;3.90;3.30;;;18.20;99.90;;;;;;5052724;28;20076;-65
2023/10/02 08:40:40;;;;;;;3.53;3.22;;;18.20;99.90;;;;;;5052629;28;20158;-65
2023/10/02 08:43:05;;;;;;;4.45;3.72;;;18.90;99.90;;;;;;5052264;28;20088;-65
2023/10/02 08:45:33;;;;;;;4.13;3.72;;;18.70;99.90;;;;;;5034700;28;20444;-67
2023/10/02 08:48:07;;;;;;;4.90;3.47;;;18.40;99.90;;;;;;5034439;28;20098;-68
2023/10/02 08:50:34;;;;;;;4.28;3.67;;;18.50;99.90;;;;;;5034464;28;20134;-67
2023/10/02 08:53:04;;;;;;;4.60;4.13;;;18.60;99.90;;;;;;5034436;28;20069;-67
2023/10/02 08:55:37;;;;;;;4.57;3.88;;;18.70;99.90;;;;;;5052454;28;20056;-65
2023/10/02 08:58:15;;;;;;;4.10;3.70;;;18.70;99.90;;;;;;5052494;28;20038;-65
2023/10/02 09:03:43;;;;;;;4.65;3.88;;;18.90;99.90;;;;;;5052087;28;20092;-65
2023/10/02 09:06:27;;;;;;;4.25;3.85;;;19.00;99.90;;;;;;5052446;28;20067;-65
2023/10/02 09:11:39;;;;;;;4.53;3.80;;;19.20;99.90;;;;;;5052342;28;20040;-66
2023/10/02 09:14:21;;;;;;;4.68;3.88;;;19.20;99.90;;;;;;5052100;28;20037;-65
2023/10/02 09:17:22;;;;;;;4.38;3.75;;;19.20;99.90;;;;;;5054204;28;20080;-65
2023/10/02 09:20:03;;;;;;;3.90;3.50;;;19.30;99.90;;;;;;5055950;28;20049;-65
2023/10/02 09:22:34;;;;;;;4.38;3.83;;;19.30;99.90;;;;;;5055781;28;20054;-65
2023/10/02 09:25:10;;;;;;;4.88;4.00;;;19.40;99.90;;;;;;5055476;28;20404;-65
2023/10/02 09:28:03;;;;;;;4.45;4.05;;;19.40;99.90;;;;;;5037622;28;20041;-65
2023/10/02 09:33:07;;;;;;;4.80;4.40;;;19.50;99.90;;;;;;5055201;28;20049;-66
2023/10/02 09:38:06;;;;;;;4.30;3.90;;;19.60;99.90;;;;;;5037416;28;20467;-66
2023/10/02 09:40:54;;;;;;;4.35;3.95;;;19.60;99.90;;;;;;5055362;28;20120;-66
2023/10/02 09:43:31;;;;;;;3.85;3.55;;;19.70;99.90;;;;;;5037452;28;20493;-66
2023/10/02 09:46:15;;;;;;;5.13;3.97;;;;;;;;;;5055082;28;20041;-70
2023/10/02 09:49:03;;;;;;;4.40;4.00;;;19.70;99.90;;;;;;5020780;28;20033;-70
2023/10/02 09:52:23;;;;;;;3.75;3.45;;;19.90;99.90;;;;;;5037057;28;20063;-70
2023/10/02 09:55:09;;;;;;;4.20;3.72;;;20.00;99.90;;;;;;5055224;28;20119;-76
2023/10/02 09:57:49;;;;;;;4.80;4.18;;;20.10;99.90;;;;;;5037017;28;20095;-74
2023/10/02 10:00:34;;;;;;;5.68;4.38;;;20.00;99.90;;;;;;5037129;28;20041;-70
2023/10/02 10:03:24;;;;;;;4.22;3.67;;;20.00;99.90;;;;;;5037318;28;20123;-70
2023/10/02 10:06:16;;;;;;;5.72;4.47;;;20.00;99.90;;;;;;5036832;28;20116;-70
2023/10/02 10:11:43;;;;;;;7.07;4.57;;;20.10;99.90;;;;;;5054858;28;20040;-65
2023/10/02 10:14:36;;;;;;;3.45;3.15;;;19.90;99.90;;;;;;5036730;28;20187;-67
2023/10/02 10:17:17;;;;;;;4.10;3.70;;;20.00;99.90;;;;;;5036852;28;20051;-65
2023/10/02 10:20:09;;;;;;;4.57;4.18;;;20.00;99.90;;;;;;5036870;28;20056;-65
2023/10/02 10:22:35;;;;;;;4.35;3.80;;;20.10;99.90;;;;;;5054626;28;20052;-65
2023/10/02 10:27:41;;;;;;;4.05;3.65;;;20.10;99.90;;;;;;5054183;28;20037;-65
2023/10/02 10:30:20;;;;;;;4.95;3.45;;;20.10;99.90;;;;;;5054467;28;20469;-67
2023/10/02 10:32:46;;;;;;;4.45;4.05;;;20.40;99.90;;;;;;5054454;28;20048;-65
2023/10/02 10:35:35;;;;;;;4.15;3.70;;;20.10;99.90;;;;;;5054067;28;20496;-65
2023/10/02 10:38:07;;;;;;;4.93;4.15;;;20.00;99.90;;;;;;5036586;28;20566;-65
2023/10/02 10:40:44;;;;;;;4.43;4.03;;;20.20;99.90;;;;;;5054352;28;20115;-66
2023/10/02 10:43:14;;;;;;;5.75;4.82;;;20.10;99.90;;;;;;5054237;28;20408;-65
2023/10/02 10:45:41;;;;;;;5.68;4.97;;;20.30;99.90;;;;;;5054216;28;20452;-65
2023/10/02 10:48:22;;;;;;;4.95;4.45;;;20.10;99.90;;;;;;5036083;28;20045;-67
2023/10/02 10:50:59;;;;;;;5.28;4.60;;;20.10;99.90;;;;;;5019873;28;20476;-66
2023/10/02 10:53:26;;;;;;;5.05;4.55;;;20.10;99.90;;;;;;5036260;28;20045;-66
2023/10/02 10:55:55;;;;;;;5.15;4.40;;;20.10;99.90;;;;;;5036077;28;20087;-66
2023/10/02 10:58:33;;;;;;;5.30;4.07;;;20.20;99.90;;;;;;5035971;28;20029;-66
2023/10/02 11:01:00;;;;;;;4.72;4.30;;;20.30;99.90;;;;;;5053614;28;20044;-66
2023/10/02 11:03:26;;;;;;;6.22;4.45;;;20.50;99.90;;;;;;5053836;28;20055;-66
2023/10/02 11:05:58;;;;;;;4.95;4.47;;;20.30;99.90;;;;;;5053880;28;20075;-66
2023/10/02 11:08:23;;;;;;;5.90;5.40;;;20.30;99.90;;;;;;5053835;28;20048;-66
2023/10/02 11:11:48;;;;;;;5.45;4.95;;;20.30;99.90;;;;;;5035679;28;20400;-66
2023/10/02 11:13:54;;;;;;;4.70;4.20;;;20.30;99.90;;;;;;5052755;28;20049;-66
2023/10/02 11:16:34;;;;;;;5.32;4.80;;;20.30;99.90;;;;;;5053728;28;20064;-66
2023/10/02 11:19:21;;;;;;;5.72;5.22;;;20.30;99.90;;;;;;5053439;28;20039;-66
2023/10/02 11:22:02;;;;;;;5.03;4.60;;;20.30;99.90;;;;;;5053427;28;20405;-65
2023/10/02 11:24:29;;;;;;;5.38;4.85;;;20.30;99.90;;;;;;5035320;28;20068;-66
2023/10/02 11:27:08;;;;;;;5.07;4.57;;;20.30;99.90;;;;;;5053511;28;20492;-66
2023/10/02 11:29:42;;;;;;;5.00;4.50;;;20.30;99.90;;;;;;5053582;28;20040;-65
2023/10/02 11:32:19;;;;;;;4.38;3.97;;;20.40;99.90;;;;;;5053413;28;20045;-66
2023/10/02 11:34:59;;;;;;;5.07;4.63;;;20.40;99.90;;;;;;5053065;28;20053;-66
2023/10/02 11:37:26;;;;;;;4.95;4.53;;;20.50;99.90;;;;;;5035232;28;20044;-66
2023/10/02 11:39:55;;;;;;;4.68;4.22;;;21.20;99.90;;;;;;5052843;28;20044;-66
2023/10/02 11:42:22;;;;;;;4.45;4.05;;;20.60;99.90;;;;;;5053253;28;20047;-66
2023/10/02 11:44:48;;;;;;;4.65;4.25;;;20.70;99.90;;;;;;5052943;28;20091;-65
2023/10/02 11:47:14;;;;;;;4.82;4.43;;;20.80;99.90;;;;;;5053292;28;20037;-66
2023/10/02 11:49:40;;;;;;;4.80;3.97;;;20.80;99.90;;;;;;5053324;28;20037;-66
2023/10/02 11:52:06;;;;;;;5.03;4.45;;;20.90;99.90;;;;;;5053136;28;20404;-66
2023/10/02 11:54:41;;;;;;;5.22;4.72;;;21.00;99.90;;;;;;5035018;28;20123;-66
2023/10/02 11:57:10;;;;;;;4.80;4.40;;;21.00;99.90;;;;;;5053118;28;20040;-66
2023/10/02 11:59:47;;;;;;;5.82;4.78;;;21.00;99.90;;;;;;5053012;28;20040;-66
2023/10/02 12:02:16;;;;;;;5.13;4.68;;;21.10;99.90;;;;;;5053047;28;20447;-65
2023/10/02 12:04:43;;;;;;;4.72;4.30;;;21.00;99.90;;;;;;5052906;28;20451;-66
2023/10/02 12:07:10;;;;;;;5.53;5.03;;;21.10;99.90;;;;;;5034861;28;20052;-66
2023/10/02 12:09:36;;;;;;;5.22;4.70;;;21.10;99.90;;;;;;5052954;28;20041;-66
2023/10/02 12:12:02;;;;;;;5.75;5.05;;;21.00;99.90;;;;;;5052909;28;20048;-66
2023/10/02 12:14:29;;;;;;;5.38;4.88;;;21.10;99.90;;;;;;5052984;28;20049;-66
2023/10/02 12:16:57;;;;;;;5.32;4.82;;;21.50;99.90;;;;;;5034681;28;20467;-66
2023/10/02 12:19:24;;;;;;;5.53;5.03;;;21.20;99.90;;;;;;5052874;28;20048;-66
2023/10/02 12:21:51;;;;;;;5.57;5.05;;;21.20;99.90;;;;;;5052853;28;20048;-66
2023/10/02 12:24:17;;;;;;;5.38;4.88;;;21.20;99.90;;;;;;5018291;28;20044;-71
2023/10/02 12:26:43;;;;;;;5.00;4.55;;;21.30;99.90;;;;;;5034673;28;20036;-65
2023/10/02 12:29:10;;;;;;;5.28;4.78;;;21.80;99.90;;;;;;5052711;28;20041;-66
2023/10/02 12:31:36;;;;;;;5.60;5.07;;;21.20;99.90;;;;;;5034885;28;20073;-66
2023/10/02 12:34:03;;;;;;;6.63;5.82;;;21.30;99.90;;;;;;5034662;28;20057;-66
2023/10/02 12:36:29;;;;;;;4.90;4.38;;;21.20;99.90;;;;;;5034511;28;20385;-66
2023/10/02 12:38:55;;;;;;;5.82;5.20;;;21.30;99.90;;;;;;5052639;28;20123;-65
2023/10/02 12:41:25;;;;;;;5.22;4.55;;;21.30;99.90;;;;;;5052668;28;20404;-65
2023/10/02 12:43:59;;;;;;;4.60;4.05;;;21.40;99.90;;;;;;5052624;28;20045;-65
2023/10/02 12:46:29;;;;;;;4.88;4.45;;;21.20;99.90;;;;;;5034472;28;20440;-64
2023/10/02 12:48:57;;;;;;;4.82;4.32;;;21.30;99.90;;;;;;5052353;28;20037;-65
2023/10/02 12:51:24;;;;;;;4.45;4.05;;;21.30;99.90;;;;;;5036061;28;20094;-65
2023/10/02 12:53:50;;;;;;;5.13;4.45;;;21.30;99.90;;;;;;5038553;28;20049;-65
2023/10/02 12:56:26;;;;;;;5.10;4.60;;;21.70;99.90;;;;;;5056312;28;20439;-68
2023/10/02 12:58:53;;;;;;;4.80;4.40;;;21.30;99.90;;;;;;5038314;28;20053;-65
2023/10/02 13:01:24;;;;;;;4.80;4.30;;;21.30;99.90;;;;;;5056308;28;20049;-65
2023/10/02 13:03:56;;;;;;;5.30;4.80;;;21.30;99.90;;;;;;5055855;28;20041;-64
2023/10/02 13:06:26;;;;;;;4.90;4.43;;;21.30;99.90;;;;;;5056109;28;20037;-65
2023/10/02 13:08:55;;;;;;;4.13;3.72;;;21.40;99.90;;;;;;5056177;28;20044;-65
2023/10/02 13:11:21;;;;;;;4.72;4.32;;;21.30;99.90;;;;;;5055837;28;20048;-64
2023/10/02 13:13:49;;;;;;;4.38;3.97;;;21.30;99.90;;;;;;5037975;28;20493;-65
2023/10/02 13:16:18;;;;;;;4.63;4.22;;;21.30;99.90;;;;;;5037947;28;20492;-65
2023/10/02 13:18:45;;;;;;;5.33;4.83;;;21.20;99.90;;;;;;5021427;28;20045;-64
2023/10/02 13:21:19;;;;;;;4.47;4.07;;;21.50;99.90;;;;;;5055886;28;20053;-65
2023/10/02 13:23:46;;;;;;;4.28;3.88;;;21.40;99.90;;;;;;5037979;28;20068;-65
2023/10/02 13:26:16;;;;;;;4.97;4.18;;;21.20;99.90;;;;;;5055866;28;20155;-65
2023/10/02 13:28:48;;;;;;;4.90;4.40;;;21.20;99.90;;;;;;5055768;28;20045;-65
2023/10/02 13:31:16;;;;;;;4.38;3.95;;;21.30;99.90;;;;;;5055238;28;20126;-65
2023/10/02 13:33:52;;;;;;;4.22;3.83;;;21.30;99.90;;;;;;5055287;28;20056;-65
2023/10/02 13:36:23;;;;;;;4.68;4.18;;;21.40;99.90;;;;;;5037405;28;20053;-65
2023/10/02 13:38:58;;;;;;;4.13;3.72;;;21.40;99.90;;;;;;5055490;28;20080;-65
2023/10/02 13:41:25;;;;;;;4.35;3.95;;;21.20;99.90;;;;;;5037273;28;20486;-65
2023/10/02 13:43:54;;;;;;;4.47;3.70;;;21.40;99.90;;;;;;5055062;28;20079;-65
2023/10/02 13:46:21;;;;;;;4.50;3.92;;;21.60;99.90;;;;;;5037125;28;20102;-65
2023/10/02 13:48:57;;;;;;;4.20;3.80;;;21.40;99.90;;;;;;5055379;28;20033;-65
2023/10/02 13:51:23;;;;;;;4.60;4.20;;;21.50;99.90;;;;;;5055334;28;20086;-65
2023/10/02 13:53:49;;;;;;;4.85;3.97;;;21.50;99.90;;;;;;5055297;28;20477;-65
2023/10/02 13:56:20;;;;;;;4.35;3.88;;;21.50;99.90;;;;;;5020670;28;20041;-65
2023/10/02 13:58:51;;;;;;;4.25;3.85;;;21.60;99.90;;;;;;5054916;28;20048;-65
2023/10/02 14:01:26;;;;;;;5.22;3.72;;;21.40;99.90;;;;;;5054757;28;20049;-65
2023/10/02 14:03:56;;;;;;;4.38;3.58;;;21.60;99.90;;;;;;5054734;28;20037;-65
2023/10/02 14:06:23;;;;;;;4.00;3.60;;;21.60;99.90;;;;;;5055041;28;20044;-65
2023/10/02 14:08:50;;;;;;;5.20;4.32;;;22.10;99.90;;;;;;5054755;28;20044;-64
2023/10/02 14:11:17;;;;;;;4.03;3.63;;;21.60;99.90;;;;;;5037050;28;20036;-66